createdAt,value
2018-12-15T00:00:37.116Z,30.77
2018-12-15T00:03:05.545Z,29.53
2018-12-15T00:05:40.537Z,30.63
2018-12-15T00:08:08.898Z,35.17
2018-12-15T00:10:37.230Z,28.20
2018-12-15T00:13:05.619Z,30.17
2018-12-15T00:15:34.583Z,31.33
2018-12-15T00:18:03.107Z,21.23
2018-12-15T00:20:31.424Z,28.33
2018-12-15T00:22:59.755Z,27.90
2018-12-15T00:25:28.119Z,25.63
2018-12-15T00:27:56.624Z,23.30
2018-12-15T00:30:24.935Z,30.90
2018-12-15T00:32:53.257Z,27.50
2018-12-15T00:35:21.572Z,26.90
2018-12-15T00:37:49.910Z,25.70
2018-12-15T00:40:18.288Z,27.43
2018-12-15T00:42:46.612Z,24.47
2018-12-15T00:45:14.940Z,29.60
2018-12-15T00:47:43.252Z,23.90
2018-12-15T00:50:11.580Z,24.03
2018-12-15T00:52:39.936Z,18.60
2018-12-15T00:55:08.240Z,18.70
2018-12-15T00:57:36.552Z,21.50
2018-12-15T01:00:05.200Z,16.67
2018-12-15T01:02:33.523Z,25.23
2018-12-15T01:05:01.855Z,18.17
2018-12-15T01:07:30.171Z,19.47
2018-12-15T01:09:58.504Z,20.03
2018-12-15T01:12:26.820Z,27.70
2018-12-15T01:14:55.141Z,18.90
2018-12-15T01:17:23.556Z,20.87
2018-12-15T01:19:51.922Z,22.03
2018-12-15T01:22:20.228Z,24.13
2018-12-15T01:24:48.628Z,23.53
2018-12-15T01:27:16.927Z,22.43
2018-12-15T01:29:45.335Z,18.00
2018-12-15T01:32:13.671Z,18.90
2018-12-15T01:34:42.235Z,22.67
2018-12-15T01:37:10.571Z,24.80
2018-12-15T01:39:38.912Z,21.53
2018-12-15T01:42:07.203Z,19.13
2018-12-15T01:44:35.531Z,16.63
2018-12-15T01:47:03.874Z,21.07
2018-12-15T01:49:32.209Z,18.17
2018-12-15T01:52:00.584Z,20.03
2018-12-15T01:54:28.985Z,14.60
2018-12-15T01:56:57.302Z,20.03
2018-12-15T01:59:25.642Z,19.70
2018-12-15T02:01:54.039Z,20.60
2018-12-15T02:04:22.376Z,19.20
2018-12-15T02:06:50.698Z,18.67
2018-12-15T02:09:19.038Z,19.80
2018-12-15T02:11:47.363Z,17.27
2018-12-15T02:14:15.712Z,28.80
2018-12-15T02:16:44.019Z,22.37
2018-12-15T02:19:12.335Z,22.00
2018-12-15T02:21:40.655Z,20.30
2018-12-15T02:24:09.007Z,20.93
2018-12-15T02:26:37.379Z,15.53
2018-12-15T02:29:05.680Z,25.80
2018-12-15T02:31:34.029Z,21.90
2018-12-15T02:34:02.343Z,15.43
2018-12-15T02:36:30.658Z,15.20
2018-12-15T02:38:58.984Z,20.20
2018-12-15T02:41:27.330Z,16.63
2018-12-15T02:43:55.797Z,12.60
2018-12-15T02:46:24.118Z,10.80
2018-12-15T02:48:52.455Z,9.80
2018-12-15T02:51:20.772Z,12.40
2018-12-15T02:53:49.085Z,17.73
2018-12-15T02:56:17.389Z,9.97
2018-12-15T02:58:45.683Z,9.67
2018-12-15T03:01:14.007Z,10.70
2018-12-15T03:03:42.324Z,9.67
2018-12-15T03:06:10.627Z,8.73
2018-12-15T03:08:38.947Z,8.20
2018-12-15T03:11:07.261Z,6.00
2018-12-15T03:13:35.554Z,7.47
2018-12-15T03:16:03.908Z,7.87
2018-12-15T03:18:32.201Z,7.13
2018-12-15T03:21:01.424Z,6.50
2018-12-15T03:23:29.782Z,6.83
2018-12-15T03:25:58.174Z,5.27
2018-12-15T03:28:26.573Z,7.47
2018-12-15T03:30:54.905Z,6.93
2018-12-15T03:33:23.333Z,8.57
2018-12-15T03:35:51.666Z,7.63
2018-12-15T03:38:19.978Z,6.90
2018-12-15T03:40:48.374Z,6.90
2018-12-15T03:43:16.683Z,7.10
2018-12-15T03:45:45.272Z,7.33
2018-12-15T03:48:13.574Z,10.10
2018-12-15T03:50:41.888Z,8.03
2018-12-15T03:53:10.189Z,7.77
2018-12-15T03:55:38.485Z,7.33
2018-12-15T03:58:06.804Z,8.33
2018-12-15T04:00:35.166Z,8.87
2018-12-15T04:03:03.488Z,8.47
2018-12-15T04:05:31.794Z,11.00
2018-12-15T04:08:00.108Z,10.57
2018-12-15T04:10:28.508Z,10.23
2018-12-15T04:12:56.927Z,23.63
2018-12-15T04:15:25.226Z,10.20
2018-12-15T04:17:53.545Z,10.10
2018-12-15T04:20:21.838Z,9.17
2018-12-15T04:22:50.167Z,8.63
2018-12-15T04:25:18.494Z,8.47
2018-12-15T04:27:46.813Z,10.13
2018-12-15T04:30:15.117Z,15.87
2018-12-15T04:32:45.334Z,9.47
2018-12-15T04:35:13.744Z,9.63
2018-12-15T04:37:42.059Z,16.10
2018-12-15T04:40:10.778Z,10.90
2018-12-15T04:42:39.130Z,12.50
2018-12-15T04:45:07.488Z,9.53
2018-12-15T04:47:35.813Z,12.17
2018-12-15T04:50:04.645Z,10.80
2018-12-15T04:52:32.965Z,10.73
2018-12-15T04:55:01.268Z,13.63
2018-12-15T04:57:29.597Z,14.60
2018-12-15T04:59:57.894Z,13.03
2018-12-15T05:02:26.228Z,11.30
2018-12-15T05:04:54.603Z,12.10
2018-12-15T05:07:23.019Z,12.80
2018-12-15T05:09:51.309Z,10.00
2018-12-15T05:12:19.634Z,11.10
2018-12-15T05:14:47.944Z,11.07
2018-12-15T05:17:16.242Z,11.60
2018-12-15T05:19:44.557Z,10.10
2018-12-15T05:22:13.221Z,11.63
2018-12-15T05:24:42.090Z,10.90
2018-12-15T05:27:11.570Z,13.00
2018-12-15T05:29:39.906Z,10.70
2018-12-15T05:32:08.313Z,11.63
2018-12-15T05:34:36.624Z,10.00
2018-12-15T05:37:04.918Z,8.63
2018-12-15T05:39:33.246Z,12.83
2018-12-15T05:42:01.545Z,13.80
2018-12-15T05:44:29.857Z,10.27
2018-12-15T05:46:58.911Z,14.80
2018-12-15T05:49:27.243Z,12.20
2018-12-15T05:51:55.549Z,9.63
2018-12-15T05:54:23.862Z,12.57
2018-12-15T05:56:52.154Z,9.97
2018-12-15T05:59:21.182Z,13.53
2018-12-15T06:01:49.546Z,15.20
2018-12-15T06:04:17.888Z,12.23
2018-12-15T06:06:46.252Z,15.57
2018-12-15T06:09:14.704Z,12.47
2018-12-15T06:11:43.011Z,15.10
2018-12-15T06:14:11.346Z,17.67
2018-12-15T06:16:39.645Z,14.33
2018-12-15T06:19:07.973Z,15.37
2018-12-15T06:21:36.264Z,13.00
2018-12-15T06:24:04.569Z,14.23
2018-12-15T06:26:32.983Z,15.87
2018-12-15T06:29:01.304Z,13.90
2018-12-15T06:31:29.597Z,15.43
2018-12-15T06:33:57.905Z,17.20
2018-12-15T06:36:26.286Z,18.03
2018-12-15T06:38:54.594Z,17.30
2018-12-15T06:41:22.907Z,14.17
2018-12-15T06:43:51.254Z,17.53
2018-12-15T06:46:19.597Z,20.10
2018-12-15T06:48:47.970Z,15.77
2018-12-15T06:51:16.294Z,16.90
2018-12-15T06:53:44.599Z,15.53
2018-12-15T06:56:13.021Z,18.93
2018-12-15T06:58:41.378Z,18.10
2018-12-15T07:01:09.698Z,16.30
2018-12-15T07:03:38.033Z,16.90
2018-12-15T07:06:06.526Z,28.03
2018-12-15T07:08:34.825Z,20.07
2018-12-15T07:11:03.182Z,22.63
2018-12-15T07:13:31.489Z,16.90
2018-12-15T07:15:59.938Z,16.63
2018-12-15T07:18:28.418Z,13.83
2018-12-15T07:20:56.799Z,19.23
2018-12-15T07:23:25.102Z,20.03
2018-12-15T07:25:53.665Z,22.90
2018-12-15T07:28:21.993Z,18.70
2018-12-15T07:30:50.306Z,26.90
2018-12-15T07:33:18.625Z,18.77
2018-12-15T07:35:47.277Z,22.63
2018-12-15T07:38:15.657Z,18.03
2018-12-15T07:40:44.026Z,20.60
2018-12-15T07:43:12.355Z,20.57
2018-12-15T07:45:40.687Z,20.80
2018-12-15T07:48:09.001Z,19.93
2018-12-15T07:50:37.313Z,21.03
2018-12-15T07:53:05.677Z,19.23
2018-12-15T07:55:34.027Z,21.50
2018-12-15T07:58:02.329Z,16.40
2018-12-15T08:00:30.651Z,21.30
2018-12-15T08:02:58.958Z,18.17
2018-12-15T08:05:27.289Z,22.37
2018-12-15T08:07:55.654Z,19.60
2018-12-15T08:10:24.453Z,20.93
2018-12-15T08:12:57.748Z,17.70
2018-12-15T08:15:26.116Z,21.73
2018-12-15T08:17:54.537Z,19.77
2018-12-15T08:20:22.893Z,17.53
2018-12-15T08:22:51.221Z,17.57
2018-12-15T08:25:19.549Z,18.83
2018-12-15T08:27:48.499Z,17.90
2018-12-15T08:30:16.836Z,20.07
2018-12-15T08:32:45.551Z,24.93
2018-12-15T08:35:14.097Z,14.80
2018-12-15T08:37:42.490Z,14.60
2018-12-15T08:40:10.850Z,18.00
2018-12-15T08:42:39.246Z,15.90
2018-12-15T08:45:07.626Z,19.20
2018-12-15T08:47:35.905Z,19.80
2018-12-15T08:50:05.497Z,18.73
2018-12-15T08:52:33.883Z,17.23
2018-12-15T08:55:02.207Z,14.97
2018-12-15T08:57:30.525Z,13.10
2018-12-15T08:59:58.918Z,12.90
2018-12-15T09:02:27.355Z,22.73
2018-12-15T09:04:55.660Z,18.20
2018-12-15T09:07:24.062Z,20.93
2018-12-15T09:09:52.521Z,14.00
2018-12-15T09:12:20.814Z,18.00
2018-12-15T09:14:49.126Z,27.03
2018-12-15T09:17:17.431Z,19.10
2018-12-15T09:19:46.469Z,18.70
2018-12-15T09:22:14.969Z,20.20
2018-12-15T09:24:43.318Z,19.43
2018-12-15T09:27:11.690Z,23.20
2018-12-15T09:29:39.999Z,22.73
2018-12-15T09:32:08.354Z,26.17
2018-12-15T09:34:36.700Z,25.07
2018-12-15T09:37:05.072Z,19.53
2018-12-15T09:39:33.450Z,29.07
2018-12-15T09:42:01.807Z,22.90
2018-12-15T09:44:30.176Z,23.77
2018-12-15T09:46:58.509Z,23.50
2018-12-15T09:49:26.856Z,22.07
2018-12-15T09:51:55.216Z,23.63
2018-12-15T09:54:23.724Z,24.67
2018-12-15T09:56:52.053Z,25.93
2018-12-15T09:59:20.468Z,43.20
2018-12-15T10:01:48.837Z,29.47
2018-12-15T10:04:17.193Z,25.90
2018-12-15T10:06:45.571Z,27.50
2018-12-15T10:09:13.890Z,22.20
2018-12-15T10:11:42.227Z,22.73
2018-12-15T10:14:10.596Z,19.77
2018-12-15T10:16:38.942Z,23.23
2018-12-15T10:19:07.316Z,17.27
2018-12-15T10:21:35.670Z,17.13
2018-12-15T10:24:04.085Z,20.30
2018-12-15T10:26:32.436Z,23.97
2018-12-15T10:29:00.789Z,19.53
2018-12-15T10:31:35.053Z,21.27
2018-12-15T10:34:03.384Z,21.50
2018-12-15T10:36:31.735Z,16.53
2018-12-15T10:39:00.126Z,23.80
2018-12-15T10:41:28.463Z,19.23
2018-12-15T10:43:56.806Z,22.40
2018-12-15T10:46:25.137Z,20.90
2018-12-15T10:48:53.494Z,21.37
2018-12-15T10:51:21.843Z,20.73
2018-12-15T10:53:50.233Z,21.33
2018-12-15T10:56:18.610Z,25.83
2018-12-15T10:58:46.957Z,21.97
2018-12-15T11:01:20.851Z,18.40
2018-12-15T11:03:49.199Z,23.33
2018-12-15T11:06:17.561Z,24.93
2018-12-15T11:08:45.933Z,23.47
2018-12-15T11:11:14.279Z,19.97
2018-12-15T11:13:42.591Z,23.73
2018-12-15T11:16:10.959Z,23.27
2018-12-15T11:18:39.298Z,30.63
2018-12-15T11:21:07.660Z,27.33
2018-12-15T11:23:35.988Z,25.00
2018-12-15T11:26:04.369Z,26.93
2018-12-15T11:28:32.797Z,32.03
2018-12-15T11:31:01.184Z,24.17
2018-12-15T11:33:29.586Z,24.60
2018-12-15T11:35:57.926Z,22.90
2018-12-15T11:38:26.314Z,30.97
2018-12-15T11:40:54.705Z,23.80
2018-12-15T11:43:23.030Z,26.03
2018-12-15T11:45:51.378Z,26.00
2018-12-15T11:48:19.732Z,24.57
2018-12-15T11:50:48.192Z,28.27
2018-12-15T11:53:16.538Z,24.47
2018-12-15T11:55:44.886Z,20.00
2018-12-15T11:58:13.228Z,24.70
2018-12-15T12:00:41.640Z,23.37
2018-12-15T12:03:10.033Z,28.33
2018-12-15T12:05:38.427Z,29.57
2018-12-15T12:08:06.767Z,23.43
2018-12-15T12:10:35.120Z,25.07
2018-12-15T12:13:03.472Z,24.80
2018-12-15T12:15:31.910Z,21.10
2018-12-15T12:18:00.246Z,25.00
2018-12-15T12:20:28.605Z,22.30
2018-12-15T12:22:56.964Z,27.43
2018-12-15T12:25:25.299Z,25.63
2018-12-15T12:27:53.689Z,26.13
2018-12-15T12:30:22.033Z,26.40
2018-12-15T12:32:50.422Z,25.27
2018-12-15T12:35:18.765Z,34.23
2018-12-15T12:37:47.119Z,25.30
2018-12-15T12:40:15.460Z,29.07
2018-12-15T12:42:43.817Z,21.40
2018-12-15T12:45:12.170Z,24.30
2018-12-15T12:47:40.543Z,30.57
2018-12-15T12:50:09.112Z,30.30
2018-12-15T12:52:37.477Z,28.00
2018-12-15T12:55:05.890Z,26.77
2018-12-15T12:57:34.260Z,28.23
2018-12-15T13:00:02.615Z,22.90
2018-12-15T13:02:30.988Z,23.80
2018-12-15T13:04:59.334Z,28.50
2018-12-15T13:07:27.697Z,26.23
2018-12-15T13:09:56.032Z,28.13
2018-12-15T13:12:24.397Z,27.93
2018-12-15T13:14:52.766Z,26.50
2018-12-15T13:17:21.114Z,28.13
2018-12-15T13:19:49.483Z,27.50
2018-12-15T13:22:17.839Z,32.70
2018-12-15T13:24:46.343Z,31.97
2018-12-15T13:27:14.739Z,27.53
2018-12-15T13:29:43.113Z,29.90
2018-12-15T13:32:11.476Z,28.90
2018-12-15T13:34:39.864Z,32.07
2018-12-15T13:37:08.300Z,26.50
2018-12-15T13:39:36.679Z,28.50
2018-12-15T13:42:05.125Z,30.50
2018-12-15T13:44:33.492Z,30.90
2018-12-15T13:47:01.872Z,24.60
2018-12-15T13:49:30.240Z,27.67
2018-12-15T13:51:58.589Z,25.93
2018-12-15T13:54:26.996Z,29.70
2018-12-15T13:56:55.374Z,26.17
2018-12-15T13:59:23.781Z,30.57
2018-12-15T14:01:52.154Z,27.53
2018-12-15T14:04:20.563Z,36.70
2018-12-15T14:06:49.031Z,25.00
2018-12-15T14:09:17.426Z,31.27
2018-12-15T14:11:45.820Z,33.97
2018-12-15T14:14:14.201Z,31.70
2018-12-15T14:16:42.613Z,30.23
2018-12-15T14:19:11.000Z,28.23
2018-12-15T14:21:39.423Z,33.80
2018-12-15T14:24:07.790Z,31.67
2018-12-15T14:26:36.374Z,29.93
2018-12-15T14:29:04.903Z,29.47
2018-12-15T14:31:33.285Z,31.10
2018-12-15T14:34:01.674Z,27.53
2018-12-15T14:36:30.051Z,30.37
2018-12-15T14:38:58.590Z,31.37
2018-12-15T14:41:27.005Z,29.73
2018-12-15T14:43:55.369Z,31.37
2018-12-15T14:46:23.877Z,32.90
2018-12-15T14:48:52.255Z,32.00
2018-12-15T14:51:20.706Z,39.83
2018-12-15T14:53:49.140Z,30.90
2018-12-15T14:56:17.512Z,33.33
2018-12-15T14:58:45.917Z,34.27
2018-12-15T15:01:14.273Z,40.33
2018-12-15T15:03:42.618Z,30.27
2018-12-15T15:06:11.049Z,33.47
2018-12-15T15:08:39.509Z,46.17
2018-12-15T15:11:08.028Z,33.50
2018-12-15T15:13:36.407Z,35.23
2018-12-15T15:16:04.810Z,41.17
2018-12-15T15:18:33.251Z,45.13
2018-12-15T15:21:01.647Z,46.03
2018-12-15T15:23:30.040Z,42.60
2018-12-15T15:25:59.626Z,38.97
2018-12-15T15:28:28.151Z,47.40
2018-12-15T15:30:56.546Z,48.93
2018-12-15T15:33:24.893Z,53.10
2018-12-15T15:35:53.299Z,60.67
2018-12-15T15:38:21.659Z,36.73
2018-12-15T15:40:50.009Z,38.17
2018-12-15T15:43:18.412Z,40.13
2018-12-15T15:45:46.771Z,39.63
2018-12-15T15:48:15.217Z,36.03
2018-12-15T15:50:43.589Z,40.17
2018-12-15T15:53:11.967Z,39.00
2018-12-15T15:55:40.330Z,45.47
2018-12-15T15:58:08.680Z,40.03
2018-12-15T16:00:37.198Z,45.67
2018-12-15T16:03:05.543Z,37.33
2018-12-15T16:05:33.943Z,38.40
2018-12-15T16:08:02.329Z,41.40
2018-12-15T16:10:30.682Z,44.27
2018-12-15T16:12:59.162Z,38.60
2018-12-15T16:15:27.561Z,41.93
2018-12-15T16:17:55.939Z,48.50
2018-12-15T16:20:24.307Z,46.83
2018-12-15T16:22:52.661Z,50.70
2018-12-15T16:25:21.018Z,48.60
2018-12-15T16:27:50.075Z,43.00
2018-12-15T16:30:18.608Z,42.73
2018-12-15T16:32:46.951Z,40.67
2018-12-15T16:35:15.327Z,47.40
2018-12-15T16:37:43.698Z,46.77
2018-12-15T16:40:12.273Z,50.30
2018-12-15T16:42:40.672Z,42.93
2018-12-15T16:45:09.487Z,42.20
2018-12-15T16:47:37.918Z,41.83
2018-12-15T16:50:09.941Z,42.60
2018-12-15T16:52:38.308Z,37.70
2018-12-15T16:55:07.142Z,39.13
2018-12-15T16:57:35.490Z,42.93
2018-12-15T17:00:07.516Z,45.50
2018-12-15T17:02:35.895Z,40.70
2018-12-15T17:05:05.529Z,38.30
2018-12-15T17:07:33.884Z,40.67
2018-12-15T17:10:02.263Z,43.60
2018-12-15T17:12:30.649Z,41.13
2018-12-15T17:14:59.043Z,40.33
2018-12-15T17:17:27.433Z,43.90
2018-12-15T17:19:55.795Z,47.23
2018-12-15T17:22:24.268Z,42.10
2018-12-15T17:24:52.612Z,42.37
2018-12-15T17:27:29.040Z,43.10
2018-12-15T17:29:57.460Z,40.60
2018-12-15T17:32:25.908Z,43.70
2018-12-15T17:34:54.273Z,51.93
2018-12-15T17:37:22.631Z,51.40
2018-12-15T17:39:51.009Z,43.60
2018-12-15T17:42:19.401Z,44.90
2018-12-15T17:44:47.799Z,51.80
2018-12-15T17:47:16.148Z,40.37
2018-12-15T17:49:44.488Z,49.80
2018-12-15T17:52:12.867Z,51.80
2018-12-15T17:54:41.211Z,44.70
2018-12-15T17:57:09.590Z,56.10
2018-12-15T17:59:37.964Z,47.43
2018-12-15T18:02:06.312Z,54.20
2018-12-15T18:04:34.706Z,53.17
2018-12-15T18:07:03.093Z,51.53
2018-12-15T18:09:31.495Z,51.60
2018-12-15T18:11:59.840Z,55.50
2018-12-15T18:14:28.228Z,46.50
2018-12-15T18:16:56.565Z,49.70
2018-12-15T18:19:25.200Z,54.37
2018-12-15T18:21:53.569Z,45.83
2018-12-15T18:24:21.992Z,49.53
2018-12-15T18:26:50.320Z,56.70
2018-12-15T18:29:18.668Z,55.40
2018-12-15T18:31:47.055Z,57.13
2018-12-15T18:34:15.558Z,54.53
2018-12-15T18:36:43.907Z,48.60
2018-12-15T18:39:12.366Z,51.50
2018-12-15T18:41:40.739Z,53.00
2018-12-15T18:44:09.098Z,59.50
2018-12-15T18:46:37.629Z,53.73
2018-12-15T18:49:05.974Z,53.13
2018-12-15T18:51:34.299Z,49.03
2018-12-15T18:54:02.663Z,54.03
2018-12-15T18:56:31.190Z,50.67
2018-12-15T18:59:00.124Z,43.30
2018-12-15T19:01:28.545Z,53.20
2018-12-15T19:03:56.888Z,54.70
2018-12-15T19:06:25.233Z,48.63
2018-12-15T19:08:53.591Z,56.73
2018-12-15T19:11:22.153Z,62.47
2018-12-15T19:13:50.599Z,48.07
2018-12-15T19:16:19.009Z,53.63
2018-12-15T19:18:47.364Z,53.07
2018-12-15T19:21:15.729Z,51.33
2018-12-15T19:23:44.272Z,45.70
2018-12-15T19:26:12.643Z,45.27
2018-12-15T19:28:40.997Z,48.47
2018-12-15T19:31:09.360Z,48.67
2018-12-15T19:33:37.716Z,51.53
2018-12-15T19:36:06.079Z,47.57
2018-12-15T19:38:34.406Z,47.03
2018-12-15T19:41:02.721Z,54.47
2018-12-15T19:43:31.095Z,53.23
2018-12-15T19:45:59.474Z,52.73
2018-12-15T19:48:28.111Z,59.73
2018-12-15T19:50:56.464Z,57.67
2018-12-15T19:53:24.834Z,64.53
2018-12-15T19:55:53.187Z,62.97
2018-12-15T19:58:21.678Z,66.30
2018-12-15T20:00:50.155Z,62.60
2018-12-15T20:03:18.490Z,62.97
2018-12-15T20:05:46.881Z,64.60
2018-12-15T20:08:15.238Z,62.10
2018-12-15T20:10:43.586Z,65.43
2018-12-15T20:13:12.080Z,62.57
2018-12-15T20:15:40.522Z,70.37
2018-12-15T20:18:09.007Z,72.60
2018-12-15T20:20:37.366Z,67.73
2018-12-15T20:23:05.688Z,72.07
2018-12-15T20:25:34.144Z,63.10
2018-12-15T20:28:02.500Z,62.10
2018-12-15T20:30:30.863Z,65.60
2018-12-15T20:32:59.255Z,69.80
2018-12-15T20:35:27.622Z,74.80
2018-12-15T20:37:55.987Z,68.83
2018-12-15T20:40:24.350Z,59.87
2018-12-15T20:42:52.722Z,75.93
2018-12-15T20:45:21.119Z,70.70
2018-12-15T20:47:49.455Z,75.90
2018-12-15T20:50:17.796Z,70.87
2018-12-15T20:52:47.731Z,74.17
2018-12-15T20:55:16.361Z,76.07
2018-12-15T20:57:44.726Z,78.23
2018-12-15T21:00:13.250Z,65.57
2018-12-15T21:02:41.614Z,68.43
2018-12-15T21:05:10.012Z,72.83
2018-12-15T21:07:38.556Z,67.43
2018-12-15T21:10:07.680Z,72.33
2018-12-15T21:12:36.022Z,79.57
2018-12-15T21:17:54.732Z,73.50
2018-12-15T21:20:23.212Z,82.77
2018-12-15T21:22:51.563Z,74.53
2018-12-15T21:25:20.014Z,74.17
2018-12-15T21:27:48.506Z,84.33
2018-12-15T21:30:16.870Z,71.50
2018-12-15T21:32:45.244Z,82.63
2018-12-15T21:35:13.740Z,71.07
2018-12-15T21:37:42.102Z,65.97
2018-12-15T21:40:10.541Z,79.00
2018-12-15T21:42:38.938Z,76.50
2018-12-15T21:45:07.972Z,73.83
2018-12-15T21:47:36.335Z,71.97
2018-12-15T21:50:05.840Z,74.90
2018-12-15T21:52:34.198Z,88.03
2018-12-15T21:55:02.554Z,75.80
2018-12-15T21:57:31.097Z,74.63
2018-12-15T21:59:59.454Z,74.27
2018-12-15T22:02:28.472Z,75.33
2018-12-15T22:04:56.976Z,81.53
2018-12-15T22:07:25.328Z,83.23
2018-12-15T22:09:53.768Z,93.67
2018-12-15T22:12:22.110Z,74.57
2018-12-15T22:14:50.452Z,88.83
2018-12-15T22:17:18.837Z,84.17
2018-12-15T22:19:47.183Z,80.00
2018-12-15T22:22:15.740Z,87.63
2018-12-15T22:24:44.376Z,68.53
2018-12-15T22:27:12.724Z,81.57
2018-12-15T22:29:41.100Z,76.47
2018-12-15T22:32:09.436Z,90.10
2018-12-15T22:34:37.978Z,70.93
2018-12-15T22:37:06.350Z,82.20
2018-12-15T22:39:34.698Z,84.93
2018-12-15T22:42:03.068Z,78.80
2018-12-15T22:44:31.407Z,80.90
2018-12-15T22:46:59.798Z,79.83
2018-12-15T22:49:28.173Z,87.57
2018-12-15T22:51:56.551Z,91.80
2018-12-15T22:54:24.916Z,73.07
2018-12-15T22:56:53.258Z,95.83
2018-12-15T22:59:21.895Z,80.73
2018-12-15T23:01:50.239Z,76.87
2018-12-15T23:04:18.583Z,93.60
2018-12-15T23:06:47.107Z,81.93
2018-12-15T23:09:15.517Z,92.27
2018-12-15T23:11:44.140Z,84.13
2018-12-15T23:14:12.517Z,101.60
2018-12-15T23:16:40.901Z,86.80
2018-12-15T23:19:09.276Z,86.53
2018-12-15T23:21:37.691Z,92.43
2018-12-15T23:24:06.293Z,79.17
2018-12-15T23:26:34.668Z,98.93
2018-12-15T23:29:03.040Z,80.90
2018-12-15T23:31:31.418Z,78.70
2018-12-15T23:33:59.741Z,87.23
2018-12-15T23:36:28.109Z,89.57
2018-12-15T23:38:56.450Z,86.67
2018-12-15T23:41:24.812Z,83.40
2018-12-15T23:43:53.309Z,90.40
2018-12-15T23:46:22.221Z,71.40
2018-12-15T23:48:50.817Z,88.73
2018-12-15T23:51:19.194Z,81.50
2018-12-15T23:53:47.534Z,92.60
2018-12-15T23:56:15.899Z,72.00
2018-12-15T23:58:44.242Z,78.20
